createdAt,value
2023-03-24T00:02:00.051Z,3.70
2023-03-24T00:04:28.443Z,3.03
2023-03-24T00:06:55.617Z,3.03
2023-03-24T00:09:22.827Z,3.50
2023-03-24T00:11:49.941Z,3.40
2023-03-24T00:14:18.571Z,3.60
2023-03-24T00:16:46.652Z,3.70
2023-03-24T00:19:14.941Z,3.47
2023-03-24T00:21:42.328Z,3.83
2023-03-24T00:24:09.898Z,3.50
2023-03-24T00:26:37.804Z,3.40
2023-03-24T00:29:05.860Z,3.30
2023-03-24T00:31:33.118Z,3.93
2023-03-24T00:34:02.236Z,3.80
2023-03-24T00:36:29.642Z,3.07
2023-03-24T00:38:57.835Z,3.83
2023-03-24T00:41:27.217Z,3.50
2023-03-24T00:43:56.199Z,3.93
2023-03-24T00:46:29.568Z,4.20
2023-03-24T00:49:05.950Z,4.10
2023-03-24T00:51:41.195Z,4.60
2023-03-24T00:54:09.304Z,3.93
2023-03-24T00:56:37.947Z,4.37
2023-03-24T00:59:05.556Z,3.77
2023-03-24T01:01:34.945Z,4.50
2023-03-24T01:04:02.962Z,4.40
2023-03-24T01:06:30.482Z,4.93
2023-03-24T01:08:57.592Z,4.47
2023-03-24T01:11:26.494Z,5.10
2023-03-24T01:13:54.550Z,5.00
2023-03-24T01:16:25.701Z,5.43
2023-03-24T01:18:53.089Z,5.70
2023-03-24T01:21:20.256Z,5.87
2023-03-24T01:23:47.724Z,5.83
2023-03-24T01:26:15.429Z,6.00
2023-03-24T01:28:43.736Z,5.37
2023-03-24T01:31:11.149Z,5.70
2023-03-24T01:33:38.918Z,4.93
2023-03-24T01:36:06.568Z,5.07
2023-03-24T01:38:34.252Z,5.60
2023-03-24T01:41:01.379Z,5.33
2023-03-24T01:43:32.754Z,5.50
2023-03-24T01:45:59.996Z,5.07
2023-03-24T01:48:39.076Z,4.93
2023-03-24T01:51:08.875Z,4.43
2023-03-24T01:53:37.287Z,4.73
2023-03-24T01:56:06.865Z,4.50
2023-03-24T01:58:34.953Z,4.40
2023-03-24T02:01:03.361Z,5.00
2023-03-24T02:03:34.160Z,4.77
2023-03-24T02:06:02.535Z,4.57
2023-03-24T02:08:53.099Z,4.70
2023-03-24T02:11:21.142Z,4.23
2023-03-24T02:13:48.275Z,4.47
2023-03-24T02:16:18.190Z,4.10
2023-03-24T02:18:45.379Z,4.27
2023-03-24T02:21:15.324Z,4.60
2023-03-24T02:24:01.176Z,4.00
2023-03-24T02:26:34.420Z,4.67
2023-03-24T02:29:04.339Z,4.50
2023-03-24T02:31:46.576Z,4.30
2023-03-24T02:34:13.765Z,4.33
2023-03-24T02:37:04.319Z,4.10
2023-03-24T02:39:43.723Z,4.57
2023-03-24T02:42:49.630Z,4.60
2023-03-24T02:45:16.798Z,4.60
2023-03-24T02:47:44.340Z,4.03
2023-03-24T02:50:23.119Z,3.90
2023-03-24T02:52:53.714Z,3.57
2023-03-24T02:55:41.802Z,3.93
2023-03-24T02:58:12.372Z,3.60
2023-03-24T03:00:44.931Z,4.17
2023-03-24T03:03:14.805Z,3.93
2023-03-24T03:05:58.641Z,3.70
2023-03-24T03:08:28.147Z,3.77
2023-03-24T03:10:56.591Z,3.63
2023-03-24T03:13:26.300Z,4.27
2023-03-24T03:15:55.755Z,3.60
2023-03-24T03:18:31.074Z,3.50
2023-03-24T03:21:11.027Z,3.57
2023-03-24T03:23:44.361Z,3.53
2023-03-24T03:26:16.521Z,3.40
2023-03-24T03:28:50.138Z,3.70
2023-03-24T03:31:21.601Z,3.23
2023-03-24T03:33:53.194Z,3.33
2023-03-24T03:36:28.010Z,3.03
2023-03-24T03:38:57.456Z,2.93
2023-03-24T03:41:24.896Z,3.30
2023-03-24T03:43:52.621Z,3.03
2023-03-24T03:46:19.893Z,3.00
2023-03-24T03:48:47.208Z,3.00
2023-03-24T03:51:15.507Z,3.70
2023-03-24T03:53:47.310Z,4.30
2023-03-24T03:56:18.237Z,4.47
2023-03-24T03:58:47.215Z,4.47
2023-03-24T04:01:16.144Z,3.77
2023-03-24T04:03:49.479Z,3.27
2023-03-24T04:06:36.068Z,3.97
2023-03-24T04:09:03.929Z,3.80
2023-03-24T04:11:37.239Z,3.90
2023-03-24T04:14:11.235Z,4.20
2023-03-24T04:16:50.567Z,3.40
2023-03-24T04:19:27.277Z,3.30
2023-03-24T04:22:04.636Z,2.60
2023-03-24T04:24:34.780Z,2.40
2023-03-24T04:27:02.989Z,2.43
2023-03-24T04:29:53.259Z,2.50
2023-03-24T04:32:24.536Z,2.47
2023-03-24T04:34:55.606Z,2.50
2023-03-24T04:37:25.778Z,2.27
2023-03-24T04:39:58.638Z,2.13
2023-03-24T04:42:28.479Z,2.20
2023-03-24T04:44:57.639Z,2.40
2023-03-24T04:47:26.879Z,2.20
2023-03-24T04:50:01.292Z,2.10
2023-03-24T04:52:29.385Z,2.70
2023-03-24T04:54:56.496Z,2.30
2023-03-24T04:57:23.670Z,2.33
2023-03-24T04:59:51.122Z,2.50
2023-03-24T05:02:19.487Z,2.30
2023-03-24T05:04:48.389Z,2.30
2023-03-24T05:07:15.509Z,2.53
2023-03-24T05:09:42.644Z,2.10
2023-03-24T05:12:09.768Z,2.50
2023-03-24T05:14:37.097Z,2.67
2023-03-24T05:17:04.222Z,2.40
2023-03-24T05:19:31.361Z,2.60
2023-03-24T05:21:58.529Z,2.60
2023-03-24T05:24:25.941Z,2.37
2023-03-24T05:26:53.011Z,2.50
2023-03-24T05:29:20.140Z,2.70
2023-03-24T05:31:47.501Z,2.97
2023-03-24T05:34:14.632Z,3.10
2023-03-24T05:36:41.825Z,3.00
2023-03-24T05:39:08.967Z,3.20
2023-03-24T05:41:36.139Z,2.90
2023-03-24T05:44:03.285Z,3.57
2023-03-24T05:46:30.520Z,3.37
2023-03-24T05:48:57.622Z,3.07
2023-03-24T05:51:24.785Z,3.23
2023-03-24T05:53:52.169Z,3.20
2023-03-24T05:56:19.341Z,3.10
2023-03-24T05:58:46.478Z,3.30
2023-03-24T06:01:13.620Z,3.43
2023-03-24T06:03:40.985Z,3.43
2023-03-24T06:06:08.921Z,3.33
2023-03-24T06:08:38.233Z,3.20
2023-03-24T06:11:05.584Z,3.87
2023-03-24T06:13:32.897Z,3.60
2023-03-24T06:16:03.186Z,3.70
2023-03-24T06:18:32.002Z,3.57
2023-03-24T06:20:59.297Z,3.77
2023-03-24T06:23:27.849Z,3.97
2023-03-24T06:25:55.716Z,4.27
2023-03-24T06:28:26.007Z,4.23
2023-03-24T06:30:53.191Z,4.80
2023-03-24T06:33:22.184Z,5.17
2023-03-24T06:35:49.447Z,5.10
2023-03-24T06:38:16.653Z,5.53
2023-03-24T06:40:43.795Z,5.53
2023-03-24T06:43:10.968Z,5.30
2023-03-24T06:45:39.535Z,6.33
2023-03-24T06:48:06.905Z,5.80
2023-03-24T06:50:35.550Z,6.03
2023-03-24T06:53:02.724Z,5.43
2023-03-24T06:55:29.848Z,4.50
2023-03-24T06:57:57.020Z,4.17
2023-03-24T07:00:25.717Z,4.10
2023-03-24T07:02:53.363Z,4.70
2023-03-24T07:05:20.571Z,3.93
2023-03-24T07:10:19.646Z,4.57
2023-03-24T07:12:48.067Z,3.97
2023-03-24T07:15:15.400Z,3.83
2023-03-24T07:17:43.040Z,4.37
2023-03-24T07:20:10.460Z,4.20
2023-03-24T07:22:37.621Z,3.53
2023-03-24T07:25:05.499Z,3.60
2023-03-24T07:27:32.929Z,3.80
2023-03-24T07:30:00.777Z,3.80
2023-03-24T07:32:30.501Z,3.70
2023-03-24T07:34:57.871Z,3.80
2023-03-24T07:37:24.980Z,4.10
2023-03-24T07:39:52.093Z,4.17
2023-03-24T07:42:19.237Z,4.30
2023-03-24T07:44:46.466Z,4.20
2023-03-24T07:47:13.584Z,4.10
2023-03-24T07:49:40.773Z,3.90
2023-03-24T07:52:07.905Z,4.60
2023-03-24T07:54:35.029Z,4.20
2023-03-24T07:57:02.548Z,4.53
2023-03-24T07:59:30.091Z,4.20
2023-03-24T08:01:59.415Z,4.43
2023-03-24T08:04:28.564Z,4.50
2023-03-24T08:06:55.836Z,4.73
2023-03-24T08:09:24.216Z,4.80
2023-03-24T08:11:51.388Z,4.90
2023-03-24T08:14:18.514Z,4.10
2023-03-24T08:16:46.421Z,4.30
2023-03-24T08:19:13.645Z,4.03
2023-03-24T08:21:41.034Z,4.80
2023-03-24T08:24:08.200Z,4.77
2023-03-24T08:26:35.515Z,4.97
2023-03-24T08:29:03.120Z,4.40
2023-03-24T08:31:36.688Z,4.40
2023-03-24T08:34:04.611Z,4.77
2023-03-24T08:36:31.832Z,4.80
2023-03-24T08:38:59.836Z,4.67
2023-03-24T08:41:36.457Z,4.73
2023-03-24T08:44:06.706Z,5.00
2023-03-24T08:46:34.396Z,5.10
2023-03-24T08:49:02.490Z,4.30
2023-03-24T08:51:29.604Z,3.70
2023-03-24T08:53:56.805Z,4.20
2023-03-24T08:56:24.039Z,4.00
2023-03-24T08:58:53.720Z,3.77
2023-03-24T09:01:22.732Z,3.97
2023-03-24T09:03:50.061Z,3.60
2023-03-24T09:06:17.316Z,3.57
2023-03-24T09:08:44.431Z,3.13
2023-03-24T09:11:16.599Z,3.20
2023-03-24T09:13:43.835Z,3.10
2023-03-24T09:16:11.222Z,2.90
2023-03-24T09:18:38.539Z,3.30
2023-03-24T09:21:06.250Z,3.13
2023-03-24T09:23:33.350Z,3.20
2023-03-24T09:26:01.419Z,3.17
2023-03-24T09:28:28.600Z,3.40
2023-03-24T09:31:03.331Z,2.97
2023-03-24T09:33:30.606Z,3.10
2023-03-24T09:36:00.125Z,3.10
2023-03-24T09:38:28.205Z,3.20
2023-03-24T09:40:57.943Z,2.90
2023-03-24T09:43:31.209Z,3.20
2023-03-24T09:45:59.750Z,3.00
2023-03-24T09:48:32.389Z,3.17
2023-03-24T09:51:03.285Z,2.37
2023-03-24T09:53:35.338Z,2.37
2023-03-24T09:56:11.732Z,2.73
2023-03-24T09:58:41.583Z,2.43
2023-03-24T10:01:16.001Z,2.50
2023-03-24T10:03:44.180Z,2.10
2023-03-24T10:06:11.465Z,2.13
2023-03-24T10:08:42.580Z,1.70
2023-03-24T10:11:09.722Z,2.30
2023-03-24T10:14:01.047Z,2.30
2023-03-24T10:16:33.038Z,2.53
2023-03-24T10:19:19.047Z,2.70
2023-03-24T10:21:52.973Z,2.50
2023-03-24T10:24:26.169Z,2.40
2023-03-24T10:27:06.800Z,2.17
2023-03-24T10:29:35.398Z,2.50
2023-03-24T10:32:04.993Z,2.57
2023-03-24T10:34:33.215Z,2.37
2023-03-24T10:37:01.862Z,2.27
2023-03-24T10:39:42.131Z,1.93
2023-03-24T10:42:15.645Z,2.43
2023-03-24T10:44:43.362Z,2.33
2023-03-24T10:47:12.575Z,2.33
2023-03-24T10:49:52.439Z,2.30
2023-03-24T10:52:19.841Z,2.27
2023-03-24T10:54:57.557Z,2.57
2023-03-24T10:57:25.651Z,2.33
2023-03-24T10:59:57.798Z,2.13
2023-03-24T11:02:26.409Z,2.20
2023-03-24T11:04:57.092Z,2.73
2023-03-24T11:07:33.309Z,2.37
2023-03-24T11:10:15.633Z,2.07
2023-03-24T11:13:05.089Z,2.30
2023-03-24T11:15:37.428Z,2.70
2023-03-24T11:18:16.609Z,2.20
2023-03-24T11:20:48.306Z,2.07
2023-03-24T11:23:19.901Z,1.97
2023-03-24T11:25:51.387Z,2.00
2023-03-24T11:28:20.476Z,2.10
2023-03-24T11:30:52.849Z,2.13
2023-03-24T11:33:35.961Z,1.80
2023-03-24T11:36:26.950Z,2.00
2023-03-24T11:39:05.295Z,2.20
2023-03-24T11:41:32.469Z,2.10
2023-03-24T11:44:16.594Z,2.13
2023-03-24T11:46:45.298Z,2.20
2023-03-24T11:49:14.528Z,2.00
2023-03-24T11:51:43.670Z,1.97
2023-03-24T11:54:13.596Z,2.30
2023-03-24T11:56:45.822Z,2.53
2023-03-24T11:59:22.148Z,2.23
2023-03-24T12:01:53.183Z,1.70
2023-03-24T12:04:27.772Z,1.90
2023-03-24T12:07:07.168Z,1.30
2023-03-24T12:09:38.539Z,0.90
2023-03-24T12:12:23.631Z,0.67
2023-03-24T12:14:53.550Z,0.70
2023-03-24T12:17:24.600Z,0.90
2023-03-24T12:19:51.748Z,0.60
2023-03-24T12:22:18.834Z,0.70
2023-03-24T12:25:04.947Z,0.90
2023-03-24T12:27:42.393Z,0.80
2023-03-24T12:30:13.161Z,0.97
2023-03-24T12:32:52.688Z,0.80
2023-03-24T12:35:37.011Z,1.10
2023-03-24T12:38:05.802Z,0.93
2023-03-24T12:40:33.066Z,0.90
2023-03-24T12:43:07.949Z,1.10
2023-03-24T12:45:45.028Z,1.00
2023-03-24T12:48:18.517Z,0.90
2023-03-24T12:50:45.792Z,1.20
2023-03-24T12:53:23.224Z,1.20
2023-03-24T12:55:58.685Z,1.20
2023-03-24T12:58:44.513Z,1.70
2023-03-24T13:01:35.532Z,1.30
2023-03-24T13:04:05.545Z,1.00
2023-03-24T13:06:38.868Z,1.23
2023-03-24T13:09:20.183Z,1.57
2023-03-24T13:12:05.456Z,1.07
2023-03-24T13:14:45.965Z,1.20
2023-03-24T13:17:19.767Z,1.10
2023-03-24T13:19:47.408Z,1.00
2023-03-24T13:22:17.426Z,1.00
2023-03-24T13:24:45.768Z,1.27
2023-03-24T13:27:12.900Z,1.20
2023-03-24T13:29:49.142Z,1.10
2023-03-24T13:32:23.591Z,1.20
2023-03-24T13:35:10.159Z,1.20
2023-03-24T13:37:39.727Z,1.20
2023-03-24T13:40:11.041Z,1.07
2023-03-24T13:42:43.945Z,1.20
2023-03-24T13:45:29.804Z,1.10
2023-03-24T13:47:59.950Z,1.20
2023-03-24T13:50:27.182Z,1.47
2023-03-24T13:53:06.180Z,1.40
2023-03-24T13:55:36.510Z,1.20
2023-03-24T13:58:13.775Z,1.40
2023-03-24T14:00:59.610Z,1.20
2023-03-24T14:03:37.239Z,1.00
2023-03-24T14:06:07.612Z,1.10
2023-03-24T14:08:43.965Z,1.30
2023-03-24T14:11:29.861Z,1.13
2023-03-24T14:14:05.715Z,1.20
2023-03-24T14:16:43.821Z,1.27
2023-03-24T14:19:17.765Z,1.30
2023-03-24T14:21:45.453Z,1.20
2023-03-24T14:24:17.486Z,1.30
2023-03-24T14:26:44.605Z,1.27
2023-03-24T14:29:34.436Z,0.90
2023-03-24T14:32:17.004Z,1.20
2023-03-24T14:34:55.840Z,1.02
2023-03-24T14:37:23.767Z,1.20
2023-03-24T14:39:51.645Z,1.10
2023-03-24T14:42:34.108Z,1.30
2023-03-24T14:45:05.730Z,1.40
2023-03-24T14:47:33.995Z,1.33
2023-03-24T14:50:03.927Z,1.10
2023-03-24T14:52:51.640Z,1.20
2023-03-24T14:55:19.791Z,1.40
2023-03-24T14:57:50.205Z,1.40
2023-03-24T15:00:29.486Z,1.33
2023-03-24T15:02:59.289Z,1.40
2023-03-24T15:05:32.421Z,1.33
2023-03-24T15:08:01.088Z,1.40
2023-03-24T15:10:32.597Z,1.50
2023-03-24T15:12:59.745Z,1.40
2023-03-24T15:15:27.190Z,1.30
2023-03-24T15:17:54.351Z,1.30
2023-03-24T15:20:21.713Z,1.25
2023-03-24T15:22:48.861Z,1.30
2023-03-24T15:25:17.120Z,1.30
2023-03-24T15:27:50.400Z,1.38
2023-03-24T15:30:17.832Z,1.30
2023-03-24T15:32:49.248Z,1.30
2023-03-24T15:35:20.061Z,1.33
2023-03-24T15:37:54.124Z,1.40
2023-03-24T15:40:27.023Z,1.30
2023-03-24T15:42:56.157Z,1.23
2023-03-24T15:45:29.885Z,1.30
2023-03-24T15:47:58.105Z,1.50
2023-03-24T15:50:30.714Z,1.40
2023-03-24T15:53:02.137Z,1.60
2023-03-24T15:55:36.726Z,1.30
2023-03-24T15:58:19.223Z,1.43
2023-03-24T16:00:46.377Z,1.40
2023-03-24T16:03:17.713Z,1.30
2023-03-24T16:05:51.186Z,1.73
2023-03-24T16:08:27.411Z,1.77
2023-03-24T16:11:04.158Z,1.97
2023-03-24T16:13:31.335Z,1.90
2023-03-24T16:16:03.643Z,1.90
2023-03-24T16:18:34.877Z,2.23
2023-03-24T16:21:02.601Z,2.10
2023-03-24T16:23:31.239Z,2.33
2023-03-24T16:25:58.478Z,1.93
2023-03-24T16:28:25.792Z,2.30
2023-03-24T16:30:57.814Z,2.00
2023-03-24T16:33:25.063Z,2.10
2023-03-24T16:35:52.301Z,2.33
2023-03-24T16:38:19.654Z,2.53
2023-03-24T16:40:49.450Z,2.00
2023-03-24T16:43:16.839Z,2.00
2023-03-24T16:45:44.010Z,2.20
2023-03-24T16:48:11.715Z,2.17
2023-03-24T16:50:38.905Z,2.40
2023-03-24T16:53:06.443Z,2.00
2023-03-24T16:55:33.910Z,2.10
2023-03-24T16:58:01.067Z,2.27
2023-03-24T17:00:29.913Z,2.10
2023-03-24T17:02:59.669Z,2.30
2023-03-24T17:05:28.758Z,2.07
2023-03-24T17:07:56.759Z,2.00
2023-03-24T17:10:24.974Z,2.13
2023-03-24T17:12:53.774Z,2.20
2023-03-24T17:15:22.561Z,1.80
2023-03-24T17:17:49.787Z,1.87
2023-03-24T17:20:17.472Z,2.07
2023-03-24T17:22:45.608Z,2.03
2023-03-24T17:25:13.869Z,2.10
2023-03-24T17:27:41.039Z,1.93
2023-03-24T17:30:11.124Z,2.07
2023-03-24T17:32:38.514Z,2.20
2023-03-24T17:35:05.774Z,2.53
2023-03-24T17:37:32.983Z,2.20
2023-03-24T17:40:00.935Z,1.93
2023-03-24T17:42:28.367Z,2.13
2023-03-24T17:44:55.669Z,2.20
2023-03-24T17:47:22.767Z,2.20
2023-03-24T17:49:49.866Z,2.37
2023-03-24T17:52:17.057Z,1.70
2023-03-24T17:54:45.855Z,2.17
2023-03-24T17:57:13.150Z,1.90
2023-03-24T17:59:40.281Z,2.20
2023-03-24T18:02:07.846Z,1.87
2023-03-24T18:04:35.270Z,2.23
2023-03-24T18:07:02.799Z,2.20
2023-03-24T18:09:32.531Z,3.77
2023-03-24T18:11:59.705Z,2.67
2023-03-24T18:14:26.877Z,2.63
2023-03-24T18:16:54.076Z,2.37
2023-03-24T18:19:21.494Z,2.67
2023-03-24T18:21:48.655Z,2.70
2023-03-24T18:24:15.968Z,2.77
2023-03-24T18:26:43.163Z,2.83
2023-03-24T18:29:10.817Z,2.80
2023-03-24T18:31:38.037Z,2.70
2023-03-24T18:34:05.337Z,2.93
2023-03-24T18:36:32.571Z,2.60
2023-03-24T18:39:01.329Z,2.90
2023-03-24T18:41:30.010Z,2.77
2023-03-24T18:43:58.021Z,2.97
2023-03-24T18:46:26.447Z,2.70
2023-03-24T18:48:54.281Z,2.93
2023-03-24T18:51:21.868Z,3.07
2023-03-24T18:53:49.373Z,3.10
2023-03-24T18:56:16.866Z,3.13
2023-03-24T18:58:45.822Z,3.27
2023-03-24T19:01:14.731Z,3.47
2023-03-24T19:03:43.997Z,3.10
2023-03-24T19:06:12.620Z,3.10
2023-03-24T19:08:44.674Z,8.10
2023-03-24T19:11:12.339Z,6.30
2023-03-24T19:13:40.993Z,4.53
2023-03-24T19:16:09.066Z,5.03
2023-03-24T19:18:36.859Z,4.07
2023-03-24T19:21:04.320Z,4.40
2023-03-24T19:23:31.479Z,3.73
2023-03-24T19:25:58.621Z,3.70
2023-03-24T19:28:30.397Z,3.63
2023-03-24T19:30:59.151Z,3.50
2023-03-24T19:33:27.412Z,3.63
2023-03-24T19:35:54.962Z,3.60
2023-03-24T19:38:23.940Z,3.63
2023-03-24T19:40:52.712Z,3.60
2023-03-24T19:43:20.599Z,3.27
2023-03-24T19:45:51.470Z,3.50
2023-03-24T19:48:18.659Z,3.33
2023-03-24T19:50:46.383Z,3.37
2023-03-24T19:53:13.838Z,3.27
2023-03-24T19:55:41.009Z,3.00
2023-03-24T19:58:08.194Z,3.50
2023-03-24T20:00:35.326Z,3.17
2023-03-24T20:03:02.658Z,3.10
2023-03-24T20:05:29.845Z,2.87
2023-03-24T20:07:59.745Z,2.70
2023-03-24T20:10:27.650Z,2.23
2023-03-24T20:12:54.802Z,2.13
2023-03-24T20:15:22.252Z,2.37
2023-03-24T20:17:49.464Z,2.43
2023-03-24T20:20:16.771Z,2.00
2023-03-24T20:22:45.762Z,2.50
2023-03-24T20:25:14.626Z,2.40
2023-03-24T20:27:41.938Z,2.63
2023-03-24T20:30:09.417Z,2.47
2023-03-24T20:32:36.940Z,2.40
2023-03-24T20:35:05.527Z,2.43
2023-03-24T20:37:35.635Z,4.80
2023-03-24T20:40:05.174Z,4.77
2023-03-24T20:42:32.521Z,4.07
2023-03-24T20:45:00.106Z,2.47
2023-03-24T20:47:27.299Z,2.60
2023-03-24T20:49:54.478Z,2.60
2023-03-24T20:52:23.092Z,2.47
2023-03-24T20:54:50.728Z,2.50
2023-03-24T20:57:18.970Z,2.57
2023-03-24T20:59:47.790Z,2.63
2023-03-24T21:02:15.509Z,2.40
2023-03-24T21:04:42.858Z,2.70
2023-03-24T21:07:10.084Z,2.27
2023-03-24T21:09:37.241Z,2.60
2023-03-24T21:12:06.528Z,2.13
2023-03-24T21:14:34.069Z,2.20
2023-03-24T21:17:01.554Z,2.20
2023-03-24T21:19:28.906Z,2.03
2023-03-24T21:21:56.243Z,1.90
2023-03-24T21:24:24.352Z,1.90
2023-03-24T21:26:53.897Z,1.83
2023-03-24T21:29:22.562Z,2.13
2023-03-24T21:31:49.939Z,2.07
2023-03-24T21:34:17.306Z,2.33
2023-03-24T21:36:44.649Z,2.30
2023-03-24T21:39:12.124Z,1.97
2023-03-24T21:41:39.857Z,2.27
2023-03-24T21:44:09.238Z,2.17
2023-03-24T21:46:37.065Z,2.00
2023-03-24T21:49:05.102Z,2.00
2023-03-24T21:51:42.741Z,1.50
2023-03-24T21:54:09.914Z,1.50
2023-03-24T21:56:38.091Z,1.30
2023-03-24T21:59:05.405Z,1.20
2023-03-24T22:01:34.054Z,0.97
2023-03-24T22:04:01.464Z,1.40
2023-03-24T22:06:29.399Z,1.90
2023-03-24T22:09:06.593Z,1.33
2023-03-24T22:11:34.982Z,1.33
2023-03-24T22:14:02.377Z,1.30
2023-03-24T22:16:29.737Z,1.53
2023-03-24T22:18:57.175Z,1.70
2023-03-24T22:21:24.308Z,1.80
2023-03-24T22:23:51.530Z,1.67
2023-03-24T22:26:18.804Z,1.80
2023-03-24T22:28:46.061Z,1.53
2023-03-24T22:31:14.873Z,1.60
2023-03-24T22:33:42.018Z,1.60
2023-03-24T22:36:09.481Z,1.50
2023-03-24T22:38:36.956Z,1.40
2023-03-24T22:41:05.417Z,1.93
2023-03-24T22:43:32.822Z,1.50
2023-03-24T22:45:59.991Z,1.63
2023-03-24T22:48:27.085Z,1.50
2023-03-24T22:50:54.267Z,1.57
2023-03-24T22:53:21.676Z,1.17
2023-03-24T22:55:49.435Z,1.47
2023-03-24T22:58:16.876Z,2.50
2023-03-24T23:00:45.458Z,1.43
2023-03-24T23:03:12.860Z,1.47
2023-03-24T23:05:43.517Z,1.80
2023-03-24T23:08:11.693Z,1.53
2023-03-24T23:10:39.960Z,1.80
2023-03-24T23:13:07.119Z,1.90
2023-03-24T23:15:34.305Z,1.70
2023-03-24T23:18:01.470Z,1.80
2023-03-24T23:20:29.649Z,1.83
2023-03-24T23:22:57.366Z,1.80
2023-03-24T23:25:25.678Z,1.50
2023-03-24T23:27:52.862Z,1.83
2023-03-24T23:30:21.210Z,1.70
2023-03-24T23:32:48.501Z,1.47
2023-03-24T23:35:16.978Z,1.50
2023-03-24T23:37:44.144Z,1.50
2023-03-24T23:40:12.870Z,1.60
2023-03-24T23:42:41.470Z,1.63
2023-03-24T23:45:09.931Z,1.83
2023-03-24T23:47:37.353Z,1.70
2023-03-24T23:50:09.115Z,1.43
2023-03-24T23:52:36.363Z,2.00
2023-03-24T23:55:03.510Z,2.00
2023-03-24T23:57:31.141Z,2.00
2023-03-24T23:59:59.892Z,1.90
